sensor_id;sensor_type;location;lat;lon;timestamp;pressure;altitude;pressure_sealevel;temperature;humidity
19208;BME280;9737;59.466;18.036;2023-05-20T00:02:04;96762.00;;;3.64;nan
19208;BME280;9737;59.466;18.036;2023-05-20T00:04:32;96749.19;;;3.61;nan
19208;BME280;9737;59.466;18.036;2023-05-20T00:07:01;96739.00;;;3.58;nan
19208;BME280;9737;59.466;18.036;2023-05-20T00:09:30;96743.41;;;3.58;nan
19208;BME280;9737;59.466;18.036;2023-05-20T00:11:58;96719.44;;;3.53;nan
19208;BME280;9737;59.466;18.036;2023-05-20T00:14:26;96721.41;;;3.51;nan
19208;BME280;9737;59.466;18.036;2023-05-20T00:16:54;96699.03;;;3.47;nan
19208;BME280;9737;59.466;18.036;2023-05-20T00:19:22;96694.91;;;3.44;nan
19208;BME280;9737;59.466;18.036;2023-05-20T00:21:50;96678.66;;;3.40;nan
19208;BME280;9737;59.466;18.036;2023-05-20T00:24:19;96659.78;;;3.37;nan
19208;BME280;9737;59.466;18.036;2023-05-20T00:26:47;96649.75;;;3.32;nan
19208;BME280;9737;59.466;18.036;2023-05-20T00:29:16;96639.56;;;3.29;nan
19208;BME280;9737;59.466;18.036;2023-05-20T00:32:09;96628.25;;;3.29;nan
19208;BME280;9737;59.466;18.036;2023-05-20T00:34:38;96643.66;;;3.32;nan
19208;BME280;9737;59.466;18.036;2023-05-20T00:37:06;96629.50;;;3.17;nan
19208;BME280;9737;59.466;18.036;2023-05-20T00:39:35;96677.00;;;3.39;nan
19208;BME280;9737;59.466;18.036;2023-05-20T00:42:04;96661.56;;;3.36;nan
19208;BME280;9737;59.466;18.036;2023-05-20T00:44:32;96637.59;;;3.31;nan
19208;BME280;9737;59.466;18.036;2023-05-20T00:47:00;96626.75;;;3.26;nan
19208;BME280;9737;59.466;18.036;2023-05-20T00:49:28;96608.84;;;3.22;nan
19208;BME280;9737;59.466;18.036;2023-05-20T00:51:56;96598.00;;;3.17;nan
19208;BME280;9737;59.466;18.036;2023-05-20T00:54:24;96606.41;;;3.20;nan
19208;BME280;9737;59.466;18.036;2023-05-20T00:56:54;96619.19;;;3.23;nan
19208;BME280;9737;59.466;18.036;2023-05-20T00:59:24;96602.13;;;3.19;nan
19208;BME280;9737;59.466;18.036;2023-05-20T01:01:53;96598.81;;;3.17;nan
19208;BME280;9737;59.466;18.036;2023-05-20T01:04:21;96592.59;;;3.18;nan
19208;BME280;9737;59.466;18.036;2023-05-20T01:06:50;96612.31;;;3.22;nan
19208;BME280;9737;59.466;18.036;2023-05-20T01:09:18;96639.56;;;3.29;nan
19208;BME280;9737;59.466;18.036;2023-05-20T01:11:50;96614.28;;;3.20;nan
19208;BME280;9737;59.466;18.036;2023-05-20T01:14:22;96617.56;;;3.22;nan
19208;BME280;9737;59.466;18.036;2023-05-20T01:16:54;96612.31;;;3.22;nan
19208;BME280;9737;59.466;18.036;2023-05-20T01:19:28;96626.75;;;3.26;nan
19208;BME280;9737;59.466;18.036;2023-05-20T01:22:02;96641.22;;;3.30;nan
19208;BME280;9737;59.466;18.036;2023-05-20T01:24:34;96635.97;;;3.30;nan
19208;BME280;9737;59.466;18.036;2023-05-20T01:27:02;96619.19;;;3.23;nan
19208;BME280;9737;59.466;18.036;2023-05-20T01:29:31;96595.53;;;3.15;nan
19208;BME280;9737;59.466;18.036;2023-05-20T01:32:00;96556.13;;;3.07;nan
19208;BME280;9737;59.466;18.036;2023-05-20T01:34:28;96563.03;;;3.08;nan
19208;BME280;9737;59.466;18.036;2023-05-20T01:36:57;96580.25;;;3.10;nan
19208;BME280;9737;59.466;18.036;2023-05-20T01:39:25;96588.63;;;3.14;nan
19208;BME280;9737;59.466;18.036;2023-05-20T01:41:55;96564.66;;;3.09;nan
19208;BME280;9737;59.466;18.036;2023-05-20T01:44:24;96540.88;;;3.02;nan
19208;BME280;9737;59.466;18.036;2023-05-20T01:46:53;96526.59;;;2.97;nan
19208;BME280;9737;59.466;18.036;2023-05-20T01:49:21;96507.22;;;2.90;nan
19208;BME280;9737;59.466;18.036;2023-05-20T01:51:49;96482.25;;;2.86;nan
19208;BME280;9737;59.466;18.036;2023-05-20T01:54:17;96478.97;;;2.84;nan
19208;BME280;9737;59.466;18.036;2023-05-20T01:56:46;96471.41;;;2.80;nan
19208;BME280;9737;59.466;18.036;2023-05-20T01:59:15;96457.66;;;2.78;nan
19208;BME280;9737;59.466;18.036;2023-05-20T02:01:43;96456.16;;;2.76;nan
19208;BME280;9737;59.466;18.036;2023-05-20T02:04:12;96444.19;;;2.73;nan
19208;BME280;9737;59.466;18.036;2023-05-20T02:06:40;96459.59;;;2.76;nan
19208;BME280;9737;59.466;18.036;2023-05-20T02:09:08;96445.84;;;2.74;nan
19208;BME280;9737;59.466;18.036;2023-05-20T02:11:36;96438.28;;;2.71;nan
19208;BME280;9737;59.466;18.036;2023-05-20T02:14:04;96435.00;;;2.69;nan
19208;BME280;9737;59.466;18.036;2023-05-20T02:16:34;96416.63;;;2.61;nan
19208;BME280;9737;59.466;18.036;2023-05-20T02:19:02;96423.84;;;2.67;nan
19208;BME280;9737;59.466;18.036;2023-05-20T02:21:30;96423.84;;;2.67;nan
19208;BME280;9737;59.466;18.036;2023-05-20T02:24:01;96424.84;;;2.66;nan
19208;BME280;9737;59.466;18.036;2023-05-20T02:26:30;96423.84;;;2.67;nan
19208;BME280;9737;59.466;18.036;2023-05-20T02:28:59;96428.13;;;2.68;nan
19208;BME280;9737;59.466;18.036;2023-05-20T02:31:29;96433.38;;;2.68;nan
19208;BME280;9737;59.466;18.036;2023-05-20T02:33:59;96443.38;;;2.73;nan
19208;BME280;9737;59.466;18.036;2023-05-20T02:36:27;96457.81;;;2.77;nan
19208;BME280;9737;59.466;18.036;2023-05-20T02:38:55;96484.38;;;2.82;nan
19208;BME280;9737;59.466;18.036;2023-05-20T02:41:23;96503.91;;;2.88;nan
19208;BME280;9737;59.466;18.036;2023-05-20T02:43:51;96525.25;;;2.93;nan
19208;BME280;9737;59.466;18.036;2023-05-20T02:46:19;96531.16;;;2.95;nan
19208;BME280;9737;59.466;18.036;2023-05-20T02:48:48;96551.38;;;3.02;nan
19208;BME280;9737;59.466;18.036;2023-05-20T02:51:17;96578.78;;;3.08;nan
19208;BME280;9737;59.466;18.036;2023-05-20T02:53:45;96604.06;;;3.17;nan
19208;BME280;9737;59.466;18.036;2023-05-20T02:56:14;96636.59;;;3.24;nan
19208;BME280;9737;59.466;18.036;2023-05-20T02:58:42;96666.50;;;3.31;nan
19208;BME280;9737;59.466;18.036;2023-05-20T03:01:10;96702.28;;;3.40;nan
19208;BME280;9737;59.466;18.036;2023-05-20T03:03:38;96730.94;;;3.52;nan
19208;BME280;9737;59.466;18.036;2023-05-20T03:06:07;96761.16;;;3.56;nan
19208;BME280;9737;59.466;18.036;2023-05-20T03:08:37;96793.03;;;3.69;nan
19208;BME280;9737;59.466;18.036;2023-05-20T03:11:05;96835.81;;;3.79;nan
19208;BME280;9737;59.466;18.036;2023-05-20T03:13:33;96890.41;;;3.93;nan
19208;BME280;9737;59.466;18.036;2023-05-20T03:16:01;96932.19;;;4.04;nan
19208;BME280;9737;59.466;18.036;2023-05-20T03:18:30;96984.88;;;4.21;nan
19208;BME280;9737;59.466;18.036;2023-05-20T03:20:58;97025.03;;;4.31;nan
19208;BME280;9737;59.466;18.036;2023-05-20T03:23:26;97089.44;;;4.45;nan
19208;BME280;9737;59.466;18.036;2023-05-20T03:25:56;97177.25;;;4.70;nan
19208;BME280;9737;59.466;18.036;2023-05-20T03:28:24;97277.84;;;4.99;nan
19208;BME280;9737;59.466;18.036;2023-05-20T03:30:55;97397.59;;;5.31;nan
19208;BME280;9737;59.466;18.036;2023-05-20T03:33:23;97532.13;;;5.65;nan
19208;BME280;9737;59.466;18.036;2023-05-20T03:35:52;97604.66;;;5.86;nan
19208;BME280;9737;59.466;18.036;2023-05-20T03:38:20;97675.75;;;6.06;nan
19208;BME280;9737;59.466;18.036;2023-05-20T03:40:48;97741.88;;;6.22;nan
19208;BME280;9737;59.466;18.036;2023-05-20T03:43:17;97803.59;;;6.39;nan
19208;BME280;9737;59.466;18.036;2023-05-20T03:45:45;97888.59;;;6.60;nan
19208;BME280;9737;59.466;18.036;2023-05-20T03:48:13;97959.66;;;6.81;nan
19208;BME280;9737;59.466;18.036;2023-05-20T03:50:42;98024.09;;;6.98;nan
19208;BME280;9737;59.466;18.036;2023-05-20T03:53:10;98073.09;;;7.10;nan
19208;BME280;9737;59.466;18.036;2023-05-20T03:55:38;98182.31;;;7.38;nan
19208;BME280;9737;59.466;18.036;2023-05-20T03:58:06;98219.97;;;7.50;nan
19208;BME280;9737;59.466;18.036;2023-05-20T04:00:36;98243.38;;;7.54;nan
19208;BME280;9737;59.466;18.036;2023-05-20T04:03:04;98298.41;;;7.68;nan
19208;BME280;9737;59.466;18.036;2023-05-20T04:05:32;98371.59;;;7.87;nan
19208;BME280;9737;59.466;18.036;2023-05-20T04:08:01;98406.66;;;7.99;nan
19208;BME280;9737;59.466;18.036;2023-05-20T04:10:31;98475.03;;;8.13;nan
19208;BME280;9737;59.466;18.036;2023-05-20T04:13:00;98537.81;;;8.30;nan
19208;BME280;9737;59.466;18.036;2023-05-20T04:15:28;98600.97;;;8.45;nan
19208;BME280;9737;59.466;18.036;2023-05-20T04:17:57;98710.38;;;8.74;nan
19208;BME280;9737;59.466;18.036;2023-05-20T04:20:27;98752.75;;;8.84;nan
19208;BME280;9737;59.466;18.036;2023-05-20T04:22:56;98820.84;;;9.03;nan
19208;BME280;9737;59.466;18.036;2023-05-20T04:25:24;98869.09;;;9.16;nan
19208;BME280;9737;59.466;18.036;2023-05-20T04:27:53;98977.00;;;9.44;nan
19208;BME280;9737;59.466;18.036;2023-05-20T04:30:23;99037.50;;;9.60;nan
19208;BME280;9737;59.466;18.036;2023-05-20T04:32:53;99120.63;;;9.80;nan
19208;BME280;9737;59.466;18.036;2023-05-20T04:35:22;99167.19;;;9.93;nan
19208;BME280;9737;59.466;18.036;2023-05-20T04:37:51;99223.66;;;10.05;nan
19208;BME280;9737;59.466;18.036;2023-05-20T04:40:21;99291.09;;;10.23;nan
19208;BME280;9737;59.466;18.036;2023-05-20T04:42:49;99362.91;;;10.43;nan
19208;BME280;9737;59.466;18.036;2023-05-20T04:45:17;99404.47;;;10.53;nan
19208;BME280;9737;59.466;18.036;2023-05-20T04:47:45;99463.38;;;10.68;nan
19208;BME280;9737;59.466;18.036;2023-05-20T04:50:13;99488.47;;;10.75;nan
19208;BME280;9737;59.466;18.036;2023-05-20T04:52:43;99597.75;;;11.03;nan
19208;BME280;9737;59.466;18.036;2023-05-20T04:55:12;99668.94;;;11.20;nan
19208;BME280;9737;59.466;18.036;2023-05-20T04:57:41;99770.47;;;11.46;nan
19208;BME280;9737;59.466;18.036;2023-05-20T05:00:11;99837.56;;;11.61;nan
19208;BME280;9737;59.466;18.036;2023-05-20T05:02:39;99849.31;;;11.58;nan
19208;BME280;9737;59.466;18.036;2023-05-20T05:05:07;99929.41;;;11.87;nan
19208;BME280;9737;59.466;18.036;2023-05-20T05:07:36;100037.22;;;12.14;nan
19208;BME280;9737;59.466;18.036;2023-05-20T05:10:06;100104.53;;;12.27;nan
19208;BME280;9737;59.466;18.036;2023-05-20T05:12:34;100158.13;;;12.45;nan
19208;BME280;9737;59.466;18.036;2023-05-20T05:15:03;100251.34;;;12.67;nan
19208;BME280;9737;59.466;18.036;2023-05-20T05:17:31;100295.69;;;12.79;nan
19208;BME280;9737;59.466;18.036;2023-05-20T05:19:59;100380.22;;;12.99;nan
19208;BME280;9737;59.466;18.036;2023-05-20T05:22:28;100442.19;;;13.14;nan
19208;BME280;9737;59.466;18.036;2023-05-20T05:24:56;100450.91;;;13.16;nan
19208;BME280;9737;59.466;18.036;2023-05-20T05:27:26;100540.69;;;13.40;nan
19208;BME280;9737;59.466;18.036;2023-05-20T05:29:54;100585.31;;;13.49;nan
19208;BME280;9737;59.466;18.036;2023-05-20T05:32:22;100604.50;;;13.54;nan
19208;BME280;9737;59.466;18.036;2023-05-20T05:34:50;100660.34;;;13.68;nan
19208;BME280;9737;59.466;18.036;2023-05-20T05:37:19;100663.13;;;13.67;nan
19208;BME280;9737;59.466;18.036;2023-05-20T05:39:47;100760.88;;;13.91;nan
19208;BME280;9737;59.466;18.036;2023-05-20T05:42:15;100847.22;;;14.14;nan
19208;BME280;9737;59.466;18.036;2023-05-20T05:44:45;100990.72;;;14.49;nan
19208;BME280;9737;59.466;18.036;2023-05-20T05:47:13;101063.31;;;14.67;nan
19208;BME280;9737;59.466;18.036;2023-05-20T05:49:41;101085.06;;;14.73;nan
19208;BME280;9737;59.466;18.036;2023-05-20T05:52:10;101111.50;;;14.67;nan
19208;BME280;9737;59.466;18.036;2023-05-20T05:54:38;101196.44;;;14.98;nan
19208;BME280;9737;59.466;18.036;2023-05-20T05:57:06;101254.28;;;15.12;nan
19208;BME280;9737;59.466;18.036;2023-05-20T05:59:35;101338.22;;;15.35;nan
19208;BME280;9737;59.466;18.036;2023-05-20T06:02:05;101345.41;;;15.34;nan
19208;BME280;9737;59.466;18.036;2023-05-20T06:04:33;101400.72;;;15.46;nan
19208;BME280;9737;59.466;18.036;2023-05-20T06:07:01;101454.03;;;15.62;nan
19208;BME280;9737;59.466;18.036;2023-05-20T06:09:29;101582.09;;;15.94;nan
19208;BME280;9737;59.466;18.036;2023-05-20T06:11:57;101636.50;;;16.07;nan
19208;BME280;9737;59.466;18.036;2023-05-20T06:14:25;101750.63;;;16.35;nan
19208;BME280;9737;59.466;18.036;2023-05-20T06:16:53;101827.97;;;16.54;nan
19208;BME280;9737;59.466;18.036;2023-05-20T06:19:23;101853.50;;;16.59;nan
19208;BME280;9737;59.466;18.036;2023-05-20T06:21:51;101829.91;;;16.52;nan
19208;BME280;9737;59.466;18.036;2023-05-20T06:24:19;101733.31;;;16.28;nan
19208;BME280;9737;59.466;18.036;2023-05-20T06:26:50;101829.91;;;16.52;nan
19208;BME280;9737;59.466;18.036;2023-05-20T06:29:19;101855.44;;;16.57;nan
19208;BME280;9737;59.466;18.036;2023-05-20T06:31:47;101899.44;;;16.67;nan
19208;BME280;9737;59.466;18.036;2023-05-20T06:34:15;102018.16;;;16.96;nan
19208;BME280;9737;59.466;18.036;2023-05-20T06:36:45;102068.22;;;17.10;nan
19208;BME280;9737;59.466;18.036;2023-05-20T06:39:13;102179.19;;;17.36;nan
19208;BME280;9737;59.466;18.036;2023-05-20T06:41:41;102257.53;;;17.55;nan
19208;BME280;9737;59.466;18.036;2023-05-20T06:44:09;102368.53;;;17.83;nan
19208;BME280;9737;59.466;18.036;2023-05-20T06:46:38;102448.69;;;18.03;nan
19208;BME280;9737;59.466;18.036;2023-05-20T06:49:06;102500.03;;;18.13;nan
19208;BME280;9737;59.466;18.036;2023-05-20T06:51:34;102564.44;;;18.29;nan
19208;BME280;9737;59.466;18.036;2023-05-20T06:54:03;102612.03;;;18.41;nan
19208;BME280;9737;59.466;18.036;2023-05-20T06:56:31;102661.59;;;18.51;nan
19208;BME280;9737;59.466;18.036;2023-05-20T06:58:59;102821.25;;;18.93;nan
19208;BME280;9737;59.466;18.036;2023-05-20T07:01:28;102789.69;;;18.82;nan
19208;BME280;9737;59.466;18.036;2023-05-20T07:03:56;102782.66;;;18.79;nan
19208;BME280;9737;59.466;18.036;2023-05-20T07:06:24;102872.69;;;19.02;nan
19208;BME280;9737;59.466;18.036;2023-05-20T07:08:52;102829.34;;;18.93;nan
19208;BME280;9737;59.466;18.036;2023-05-20T07:11:22;102819.75;;;18.88;nan
19208;BME280;9737;59.466;18.036;2023-05-20T07:13:50;102839.16;;;18.94;nan
19208;BME280;9737;59.466;18.036;2023-05-20T07:16:19;102825.91;;;18.91;nan
19208;BME280;9737;59.466;18.036;2023-05-20T07:18:47;103001.84;;;19.32;nan
19208;BME280;9737;59.466;18.036;2023-05-20T07:21:15;102989.44;;;19.30;nan
19208;BME280;9737;59.466;18.036;2023-05-20T07:23:44;103039.00;;;19.41;nan
19208;BME280;9737;59.466;18.036;2023-05-20T07:26:12;103145.19;;;19.67;nan
19208;BME280;9737;59.466;18.036;2023-05-20T07:28:41;103270.00;;;19.98;nan
19208;BME280;9737;59.466;18.036;2023-05-20T07:31:11;103208.06;;;19.82;nan
19208;BME280;9737;59.466;18.036;2023-05-20T07:33:39;103187.84;;;19.75;nan
19208;BME280;9737;59.466;18.036;2023-05-20T07:36:07;103065.66;;;19.46;nan
19208;BME280;9737;59.466;18.036;2023-05-20T07:38:37;103096.56;;;19.55;nan
19208;BME280;9737;59.466;18.036;2023-05-20T07:41:06;103190.44;;;19.76;nan
19208;BME280;9737;59.466;18.036;2023-05-20T07:43:34;103274.44;;;19.99;nan
19208;BME280;9737;59.466;18.036;2023-05-20T07:46:04;103438.59;;;20.35;nan
19208;BME280;9737;59.466;18.036;2023-05-20T07:48:32;103461.66;;;20.40;nan
19208;BME280;9737;59.466;18.036;2023-05-20T07:51:00;103439.44;;;20.35;nan
19208;BME280;9737;59.466;18.036;2023-05-20T07:53:28;103486.44;;;20.47;nan
19208;BME280;9737;59.466;18.036;2023-05-20T07:55:56;103389.00;;;20.22;nan
19208;BME280;9737;59.466;18.036;2023-05-20T07:58:25;103556.47;;;20.64;nan
19208;BME280;9737;59.466;18.036;2023-05-20T08:00:53;103698.34;;;21.00;nan
19208;BME280;9737;59.466;18.036;2023-05-20T08:03:23;103564.59;;;20.64;nan
19208;BME280;9737;59.466;18.036;2023-05-20T08:05:52;103446.47;;;20.38;nan
19208;BME280;9737;59.466;18.036;2023-05-20T08:08:20;103586.66;;;20.71;nan
19208;BME280;9737;59.466;18.036;2023-05-20T08:10:49;103630.19;;;20.81;nan
19208;BME280;9737;59.466;18.036;2023-05-20T08:13:18;103616.88;;;20.78;nan
19208;BME280;9737;59.466;18.036;2023-05-20T08:15:46;103576.94;;;20.68;nan
19208;BME280;9737;59.466;18.036;2023-05-20T08:18:15;103686.00;;;20.96;nan
19208;BME280;9737;59.466;18.036;2023-05-20T08:20:44;103762.53;;;20.98;nan
19208;BME280;9737;59.466;18.036;2023-05-20T08:23:12;103915.97;;;21.53;nan
19208;BME280;9737;59.466;18.036;2023-05-20T08:25:43;104055.03;;;21.80;nan
19208;BME280;9737;59.466;18.036;2023-05-20T08:28:13;104200.81;;;22.18;nan
19208;BME280;9737;59.466;18.036;2023-05-20T08:30:42;104307.53;;;22.45;nan
19208;BME280;9737;59.466;18.036;2023-05-20T08:33:11;104439.50;;;22.75;nan
19208;BME280;9737;59.466;18.036;2023-05-20T08:35:40;104482.38;;;22.84;nan
19208;BME280;9737;59.466;18.036;2023-05-20T08:38:09;104472.59;;;22.81;nan
19208;BME280;9737;59.466;18.036;2023-05-20T08:40:38;104348.59;;;22.53;nan
19208;BME280;9737;59.466;18.036;2023-05-20T08:43:06;104479.69;;;22.84;nan
19208;BME280;9737;59.466;18.036;2023-05-20T08:45:36;104694.75;;;23.33;nan
19208;BME280;9737;59.466;18.036;2023-05-20T08:48:05;104869.81;;;23.75;nan
19208;BME280;9737;59.466;18.036;2023-05-20T08:50:33;105139.72;;;24.40;nan
19208;BME280;9737;59.466;18.036;2023-05-20T08:53:01;105286.50;;;24.75;nan
19208;BME280;9737;59.466;18.036;2023-05-20T08:55:37;105320.66;;;24.80;nan
19208;BME280;9737;59.466;18.036;2023-05-20T08:58:09;105536.44;;;25.34;nan
19208;BME280;9737;59.466;18.036;2023-05-20T09:00:37;105796.16;;;25.88;nan
19208;BME280;9737;59.466;18.036;2023-05-20T09:03:05;105926.22;;;26.20;nan
19208;BME280;9737;59.466;18.036;2023-05-20T09:05:33;106218.41;;;26.90;nan
19208;BME280;9737;59.466;18.036;2023-05-20T09:08:05;106255.38;;;26.97;nan
19208;BME280;9737;59.466;18.036;2023-05-20T09:10:35;106336.41;;;27.15;nan
19208;BME280;9737;59.466;18.036;2023-05-20T09:13:04;106590.47;;;27.74;nan
19208;BME280;9737;59.466;18.036;2023-05-20T09:15:33;106388.63;;;27.28;nan
19208;BME280;9737;59.466;18.036;2023-05-20T09:18:05;106533.69;;;27.61;nan
19208;BME280;9737;59.466;18.036;2023-05-20T09:20:35;106520.16;;;27.58;nan
19208;BME280;9737;59.466;18.036;2023-05-20T09:23:05;106654.50;;;27.89;nan
19208;BME280;9737;59.466;18.036;2023-05-20T09:25:35;106605.69;;;27.80;nan
19208;BME280;9737;59.466;18.036;2023-05-20T09:28:04;106744.72;;;28.10;nan
19208;BME280;9737;59.466;18.036;2023-05-20T09:30:33;106452.41;;;27.45;nan
19208;BME280;9737;59.466;18.036;2023-05-20T09:33:03;106311.97;;;27.12;nan
19208;BME280;9737;59.466;18.036;2023-05-20T09:35:34;106526.22;;;27.64;nan
19208;BME280;9737;59.466;18.036;2023-05-20T09:38:05;106650.78;;;27.90;nan
19208;BME280;9737;59.466;18.036;2023-05-20T09:40:34;106364.19;;;27.25;nan
19208;BME280;9737;59.466;18.036;2023-05-20T09:43:06;106478.31;;;27.56;nan
19208;BME280;9737;59.466;18.036;2023-05-20T09:45:37;106762.53;;;28.18;nan
19208;BME280;9737;59.466;18.036;2023-05-20T09:48:06;106853.72;;;28.39;nan
19208;BME280;9737;59.466;18.036;2023-05-20T09:50:36;106882.75;;;28.43;nan
19208;BME280;9737;59.466;18.036;2023-05-20T09:53:05;107234.16;;;29.26;nan
19208;BME280;9737;59.466;18.036;2023-05-20T09:55:35;107337.31;;;29.51;nan
19208;BME280;9737;59.466;18.036;2023-05-20T09:58:04;107179.88;;;29.14;nan
19208;BME280;9737;59.466;18.036;2023-05-20T10:00:32;106833.75;;;28.37;nan
19208;BME280;9737;59.466;18.036;2023-05-20T10:03:00;107040.56;;;28.85;nan
19208;BME280;9737;59.466;18.036;2023-05-20T10:05:31;107099.31;;;28.98;nan
19208;BME280;9737;59.466;18.036;2023-05-20T10:08:34;106895.09;;;28.52;nan
19208;BME280;9737;59.466;18.036;2023-05-20T10:11:12;107339.81;;;29.55;nan
19208;BME280;9737;59.466;18.036;2023-05-20T10:14:08;107299.00;;;29.48;nan
19208;BME280;9737;59.466;18.036;2023-05-20T10:16:45;107249.13;;;29.38;nan
19208;BME280;9737;59.466;18.036;2023-05-20T10:19:25;107310.66;;;29.53;nan
19208;BME280;9737;59.466;18.036;2023-05-20T10:21:59;107243.72;;;29.37;nan
19208;BME280;9737;59.466;18.036;2023-05-20T10:24:34;107089.91;;;29.04;nan
19208;BME280;9737;59.466;18.036;2023-05-20T10:27:07;107206.41;;;29.33;nan
19208;BME280;9737;59.466;18.036;2023-05-20T10:29:43;106915.34;;;28.66;nan
19208;BME280;9737;59.466;18.036;2023-05-20T10:32:22;107169.19;;;29.27;nan
19208;BME280;9737;59.466;18.036;2023-05-20T10:34:51;107317.63;;;29.60;nan
19208;BME280;9737;59.466;18.036;2023-05-20T10:37:26;107105.00;;;29.12;nan
19208;BME280;9737;59.466;18.036;2023-05-20T10:40:07;107236.03;;;29.45;nan
19208;BME280;9737;59.466;18.036;2023-05-20T10:42:39;106953.03;;;28.80;nan
19208;BME280;9737;59.466;18.036;2023-05-20T10:45:09;106775.88;;;28.43;nan
19208;BME280;9737;59.466;18.036;2023-05-20T10:47:41;106985.56;;;28.88;nan
19208;BME280;9737;59.466;18.036;2023-05-20T10:50:25;107205.94;;;29.42;nan
19208;BME280;9737;59.466;18.036;2023-05-20T10:52:53;107319.03;;;29.69;nan
19208;BME280;9737;59.466;18.036;2023-05-20T10:55:21;107022.38;;;29.01;nan
19208;BME280;9737;59.466;18.036;2023-05-20T10:57:51;107028.66;;;29.03;nan
19208;BME280;9737;59.466;18.036;2023-05-20T11:00:20;106930.88;;;28.85;nan
19208;BME280;9737;59.466;18.036;2023-05-20T11:02:48;106673.63;;;28.25;nan
19208;BME280;9737;59.466;18.036;2023-05-20T11:05:17;106387.72;;;27.62;nan
19208;BME280;9737;59.466;18.036;2023-05-20T11:07:46;106349.81;;;27.54;nan
19208;BME280;9737;59.466;18.036;2023-05-20T11:10:14;106234.41;;;27.30;nan
19208;BME280;9737;59.466;18.036;2023-05-20T11:12:42;106251.47;;;27.35;nan
19208;BME280;9737;59.466;18.036;2023-05-20T11:15:12;106255.00;;;27.37;nan
19208;BME280;9737;59.466;18.036;2023-05-20T11:17:51;106365.66;;;27.65;nan
19208;BME280;9737;59.466;18.036;2023-05-20T11:20:19;106563.00;;;28.11;nan
19208;BME280;9737;59.466;18.036;2023-05-20T11:22:48;106400.72;;;27.74;nan
19208;BME280;9737;59.466;18.036;2023-05-20T11:25:17;105968.81;;;26.73;nan
19208;BME280;9737;59.466;18.036;2023-05-20T11:27:45;106019.03;;;26.86;nan
19208;BME280;9737;59.466;18.036;2023-05-20T11:30:16;105847.38;;;26.47;nan
19208;BME280;9737;59.466;18.036;2023-05-20T11:32:55;105840.06;;;26.48;nan
19208;BME280;9737;59.466;18.036;2023-05-20T11:35:24;105808.53;;;26.42;nan
19208;BME280;9737;59.466;18.036;2023-05-20T11:37:59;105854.34;;;26.53;nan
19208;BME280;9737;59.466;18.036;2023-05-20T11:40:30;105778.97;;;26.35;nan
19208;BME280;9737;59.466;18.036;2023-05-20T11:43:04;105775.16;;;26.37;nan
19208;BME280;9737;59.466;18.036;2023-05-20T11:45:44;105841.66;;;26.52;nan
19208;BME280;9737;59.466;18.036;2023-05-20T11:48:13;105951.09;;;26.80;nan
19208;BME280;9737;59.466;18.036;2023-05-20T11:50:43;105962.81;;;26.82;nan
19208;BME280;9737;59.466;18.036;2023-05-20T11:53:14;105686.97;;;26.19;nan
19208;BME280;9737;59.466;18.036;2023-05-20T11:55:46;105669.72;;;26.19;nan
19208;BME280;9737;59.466;18.036;2023-05-20T11:58:17;106020.94;;;27.02;nan
19208;BME280;9737;59.466;18.036;2023-05-20T12:00:47;106281.81;;;27.64;nan
19208;BME280;9737;59.466;18.036;2023-05-20T12:03:20;106333.19;;;27.74;nan
19208;BME280;9737;59.466;18.036;2023-05-20T12:05:49;106434.09;;;27.98;nan
19208;BME280;9737;59.466;18.036;2023-05-20T12:08:17;106613.34;;;28.43;nan
19208;BME280;9737;59.466;18.036;2023-05-20T12:10:45;106493.50;;;28.13;nan
19208;BME280;9737;59.466;18.036;2023-05-20T12:13:13;106654.91;;;28.51;nan
19208;BME280;9737;59.466;18.036;2023-05-20T12:15:42;107264.72;;;29.92;nan
19208;BME280;9737;59.466;18.036;2023-05-20T12:18:11;107555.41;;;30.60;nan
19208;BME280;9737;59.466;18.036;2023-05-20T12:20:39;107359.66;;;30.17;nan
19208;BME280;9737;59.466;18.036;2023-05-20T12:23:08;107096.47;;;29.54;nan
19208;BME280;9737;59.466;18.036;2023-05-20T12:25:36;106945.44;;;29.21;nan
19208;BME280;9737;59.466;18.036;2023-05-20T12:28:04;106860.47;;;29.03;nan
19208;BME280;9737;59.466;18.036;2023-05-20T12:30:32;106508.38;;;28.25;nan
19208;BME280;9737;59.466;18.036;2023-05-20T12:33:00;106115.88;;;27.31;nan
19208;BME280;9737;59.466;18.036;2023-05-20T12:35:37;105684.50;;;26.31;nan
19208;BME280;9737;59.466;18.036;2023-05-20T12:38:06;105570.38;;;26.07;nan
19208;BME280;9737;59.466;18.036;2023-05-20T12:40:34;105112.75;;;24.95;nan
19208;BME280;9737;59.466;18.036;2023-05-20T12:43:04;104931.03;;;24.55;nan
19208;BME280;9737;59.466;18.036;2023-05-20T12:45:32;104780.97;;;24.18;nan
19208;BME280;9737;59.466;18.036;2023-05-20T12:48:00;104703.97;;;24.03;nan
19208;BME280;9737;59.466;18.036;2023-05-20T12:50:29;104779.78;;;24.22;nan
19208;BME280;9737;59.466;18.036;2023-05-20T12:52:58;104661.03;;;23.94;nan
19208;BME280;9737;59.466;18.036;2023-05-20T12:55:26;104608.31;;;23.83;nan
19208;BME280;9737;59.466;18.036;2023-05-20T12:57:54;104444.16;;;23.44;nan
19208;BME280;9737;59.466;18.036;2023-05-20T13:00:22;104445.88;;;23.45;nan
19208;BME280;9737;59.466;18.036;2023-05-20T13:02:50;104539.50;;;23.68;nan
19208;BME280;9737;59.466;18.036;2023-05-20T13:05:21;104683.06;;;24.04;nan
19208;BME280;9737;59.466;18.036;2023-05-20T13:07:49;104758.91;;;24.23;nan
19208;BME280;9737;59.466;18.036;2023-05-20T13:10:18;104750.84;;;24.21;nan
19208;BME280;9737;59.466;18.036;2023-05-20T13:12:46;104861.66;;;24.48;nan
19208;BME280;9737;59.466;18.036;2023-05-20T13:15:15;104995.50;;;24.83;nan
19208;BME280;9737;59.466;18.036;2023-05-20T13:17:43;105091.19;;;25.07;nan
19208;BME280;9737;59.466;18.036;2023-05-20T13:20:12;105171.69;;;25.26;nan
19208;BME280;9737;59.466;18.036;2023-05-20T13:22:40;105315.03;;;25.59;nan
19208;BME280;9737;59.466;18.036;2023-05-20T13:25:08;105423.34;;;25.87;nan
19208;BME280;9737;59.466;18.036;2023-05-20T13:27:37;105734.50;;;26.63;nan
19208;BME280;9737;59.466;18.036;2023-05-20T13:30:07;105586.59;;;26.24;nan
19208;BME280;9737;59.466;18.036;2023-05-20T13:32:35;105724.56;;;26.62;nan